createdAt,value
2018-12-05T00:01:26.589Z,3.50
2018-12-05T00:03:55.888Z,3.10
2018-12-05T00:06:25.146Z,3.13
2018-12-05T00:08:54.302Z,3.60
2018-12-05T00:11:23.471Z,4.07
2018-12-05T00:13:52.733Z,3.37
2018-12-05T00:16:22.008Z,3.67
2018-12-05T00:18:51.228Z,3.10
2018-12-05T00:21:20.485Z,2.60
2018-12-05T00:23:49.704Z,2.70
2018-12-05T00:26:19.020Z,2.50
2018-12-05T00:28:48.296Z,3.50
2018-12-05T00:31:17.555Z,3.30
2018-12-05T00:33:46.823Z,2.87
2018-12-05T00:36:16.095Z,3.10
2018-12-05T00:38:45.353Z,3.77
2018-12-05T00:41:14.582Z,2.87
2018-12-05T00:43:43.876Z,3.20
2018-12-05T00:46:13.084Z,2.80
2018-12-05T00:48:42.384Z,4.13
2018-12-05T00:51:11.751Z,3.03
2018-12-05T00:53:41.023Z,2.93
2018-12-05T00:56:10.205Z,2.63
2018-12-05T00:58:39.447Z,2.83
2018-12-05T01:01:08.769Z,3.20
2018-12-05T01:03:38.037Z,2.73
2018-12-05T01:06:07.231Z,4.43
2018-12-05T01:08:36.505Z,2.60
2018-12-05T01:11:05.786Z,2.70
2018-12-05T01:13:35.040Z,3.03
2018-12-05T01:16:04.368Z,3.30
2018-12-05T01:18:33.587Z,4.10
2018-12-05T01:21:02.824Z,2.90
2018-12-05T01:23:32.116Z,4.63
2018-12-05T01:26:01.264Z,3.67
2018-12-05T01:28:30.507Z,4.00
2018-12-05T01:30:59.715Z,2.80
2018-12-05T01:33:28.976Z,4.20
2018-12-05T01:35:58.258Z,3.90
2018-12-05T01:38:27.532Z,2.70
2018-12-05T01:40:56.773Z,3.80
2018-12-05T01:43:30.119Z,3.10
2018-12-05T01:45:59.362Z,4.00
2018-12-05T01:48:28.498Z,2.73
2018-12-05T01:50:57.769Z,4.40
2018-12-05T01:53:27.061Z,4.40
2018-12-05T01:55:56.293Z,3.60
2018-12-05T01:58:25.537Z,3.30
2018-12-05T02:00:54.825Z,3.17
2018-12-05T02:03:24.046Z,3.07
2018-12-05T02:05:53.147Z,3.13
2018-12-05T02:08:22.380Z,2.97
2018-12-05T02:10:51.703Z,2.57
2018-12-05T02:13:20.993Z,3.50
2018-12-05T02:15:50.274Z,3.10
2018-12-05T02:18:19.584Z,3.33
2018-12-05T02:20:48.873Z,3.20
2018-12-05T02:23:18.181Z,3.10
2018-12-05T02:25:47.418Z,2.87
2018-12-05T02:28:16.698Z,2.80
2018-12-05T02:30:46.012Z,2.87
2018-12-05T02:33:15.353Z,3.60
2018-12-05T02:35:44.620Z,3.07
2018-12-05T02:38:13.776Z,2.20
2018-12-05T02:40:42.972Z,3.17
2018-12-05T02:43:12.195Z,1.97
2018-12-05T02:45:41.416Z,3.40
2018-12-05T02:48:10.685Z,4.33
2018-12-05T02:50:39.996Z,2.90
2018-12-05T02:53:09.211Z,2.33
2018-12-05T02:55:38.445Z,2.40
2018-12-05T02:58:07.856Z,2.60
2018-12-05T03:00:37.086Z,3.20
2018-12-05T03:03:06.330Z,2.70
2018-12-05T03:05:35.627Z,2.20
2018-12-05T03:08:04.904Z,3.07
2018-12-05T03:10:34.080Z,2.00
2018-12-05T03:13:03.232Z,2.33
2018-12-05T03:15:32.431Z,2.80
2018-12-05T03:18:01.613Z,2.70
2018-12-05T03:20:30.871Z,3.37
2018-12-05T03:23:00.125Z,4.30
2018-12-05T03:25:29.392Z,3.10
2018-12-05T03:27:58.729Z,2.63
2018-12-05T03:30:27.951Z,2.70
2018-12-05T03:32:57.114Z,2.70
2018-12-05T03:35:31.865Z,2.60
2018-12-05T03:38:01.047Z,3.30
2018-12-05T03:40:30.288Z,2.90
2018-12-05T03:42:59.582Z,2.90
2018-12-05T03:45:31.687Z,3.57
2018-12-05T03:48:01.269Z,2.70
2018-12-05T03:50:30.596Z,2.50
2018-12-05T03:52:59.872Z,3.17
2018-12-05T03:55:29.122Z,2.43
2018-12-05T03:57:58.357Z,3.23
2018-12-05T04:00:27.635Z,2.83
2018-12-05T04:02:56.889Z,2.37
2018-12-05T04:05:26.131Z,3.00
2018-12-05T04:07:55.327Z,2.53
2018-12-05T04:10:24.557Z,2.57
2018-12-05T04:12:53.756Z,2.40
2018-12-05T04:15:23.032Z,2.60
2018-12-05T04:17:58.743Z,2.37
2018-12-05T04:20:28.036Z,2.47
2018-12-05T04:22:57.195Z,2.43
2018-12-05T04:25:26.384Z,3.20
2018-12-05T04:27:55.656Z,2.23
2018-12-05T04:30:24.801Z,3.10
2018-12-05T04:32:53.970Z,2.07
2018-12-05T04:35:23.159Z,2.30
2018-12-05T04:37:52.913Z,2.20
2018-12-05T04:40:21.979Z,3.07
2018-12-05T04:42:51.165Z,2.70
2018-12-05T04:45:20.472Z,2.93
2018-12-05T04:47:49.678Z,2.30
2018-12-05T04:50:18.877Z,2.13
2018-12-05T04:52:48.105Z,2.60
2018-12-05T04:55:17.411Z,2.47
2018-12-05T04:57:46.584Z,2.93
2018-12-05T05:00:15.939Z,2.43
2018-12-05T05:02:45.200Z,2.27
2018-12-05T05:05:14.595Z,2.63
2018-12-05T05:07:43.771Z,2.60
2018-12-05T05:10:16.657Z,1.90
2018-12-05T05:12:46.204Z,2.70
2018-12-05T05:15:15.425Z,2.63
2018-12-05T05:17:44.680Z,3.20
2018-12-05T05:20:13.898Z,1.80
2018-12-05T05:22:43.055Z,1.50
2018-12-05T05:25:12.280Z,2.00
2018-12-05T05:27:45.873Z,2.97
2018-12-05T05:30:12.536Z,2.73
2018-12-05T05:32:41.787Z,2.60
2018-12-05T05:35:10.948Z,2.20
2018-12-05T05:37:40.267Z,2.40
2018-12-05T05:40:09.472Z,2.00
2018-12-05T05:42:38.670Z,3.87
2018-12-05T05:45:07.863Z,5.00
2018-12-05T05:47:37.208Z,3.60
2018-12-05T05:50:07.016Z,2.70
2018-12-05T05:52:36.171Z,2.60
2018-12-05T05:55:06.149Z,4.40
2018-12-05T05:57:35.397Z,3.27
2018-12-05T06:00:05.432Z,2.63
2018-12-05T06:02:34.620Z,2.67
2018-12-05T06:05:03.928Z,2.17
2018-12-05T06:07:33.184Z,2.33
2018-12-05T06:10:02.381Z,2.07
2018-12-05T06:12:31.507Z,2.83
2018-12-05T06:15:00.691Z,2.63
2018-12-05T06:17:29.856Z,3.07
2018-12-05T06:19:59.229Z,3.20
2018-12-05T06:22:28.546Z,2.30
2018-12-05T06:24:57.727Z,2.90
2018-12-05T06:27:26.926Z,2.57
2018-12-05T06:29:56.166Z,2.77
2018-12-05T06:32:25.433Z,2.40
2018-12-05T06:34:54.681Z,2.27
2018-12-05T06:37:23.830Z,2.80
2018-12-05T06:39:53.369Z,3.20
2018-12-05T06:42:22.572Z,2.30
2018-12-05T06:44:51.768Z,2.33
2018-12-05T06:47:20.911Z,3.00
2018-12-05T06:49:50.144Z,3.63
2018-12-05T06:52:19.416Z,2.53
2018-12-05T06:57:45.467Z,2.77
2018-12-05T07:00:14.700Z,2.73
2018-12-05T07:02:43.856Z,3.13
2018-12-05T07:05:13.086Z,2.37
2018-12-05T07:07:42.316Z,3.93
2018-12-05T07:10:11.460Z,2.60
2018-12-05T07:12:40.668Z,3.13
2018-12-05T07:15:09.922Z,2.80
2018-12-05T07:17:39.240Z,4.30
2018-12-05T07:20:10.050Z,3.93
2018-12-05T07:22:39.379Z,3.83
2018-12-05T07:25:08.746Z,3.87
2018-12-05T07:27:38.075Z,3.40
2018-12-05T07:30:07.346Z,9.27
2018-12-05T07:32:36.489Z,7.37
2018-12-05T07:35:06.693Z,5.77
2018-12-05T07:37:35.911Z,5.60
2018-12-05T07:40:05.756Z,7.10
2018-12-05T07:42:34.900Z,5.10
2018-12-05T07:45:04.201Z,4.33
2018-12-05T07:47:33.356Z,3.80
2018-12-05T07:50:02.476Z,4.30
2018-12-05T07:52:31.612Z,4.60
2018-12-05T07:55:00.799Z,4.27
2018-12-05T07:57:29.996Z,4.30
2018-12-05T07:59:59.140Z,3.97
2018-12-05T08:02:28.331Z,3.53
2018-12-05T08:04:57.493Z,4.20
2018-12-05T08:07:26.749Z,4.00
2018-12-05T08:09:55.898Z,4.30
2018-12-05T08:12:25.116Z,3.80
2018-12-05T08:14:54.341Z,4.30
2018-12-05T08:17:23.594Z,4.43
2018-12-05T08:19:52.760Z,3.97
2018-12-05T08:22:21.983Z,4.20
2018-12-05T08:24:51.274Z,5.37
2018-12-05T08:27:20.475Z,5.73
2018-12-05T08:29:49.684Z,4.20
2018-12-05T08:32:18.982Z,5.47
2018-12-05T08:34:48.176Z,5.03
2018-12-05T08:37:17.420Z,5.23
2018-12-05T08:39:46.712Z,4.93
2018-12-05T08:42:15.942Z,4.67
2018-12-05T08:44:45.104Z,5.77
2018-12-05T08:47:14.247Z,3.90
2018-12-05T08:49:43.478Z,4.33
2018-12-05T08:52:12.716Z,4.33
2018-12-05T08:54:41.983Z,4.60
2018-12-05T08:57:12.447Z,4.80
2018-12-05T08:59:41.809Z,6.27
2018-12-05T09:02:11.019Z,7.00
2018-12-05T09:04:40.220Z,6.77
2018-12-05T09:07:09.472Z,6.67
2018-12-05T09:09:38.661Z,6.37
2018-12-05T09:12:07.861Z,6.40
2018-12-05T09:14:37.225Z,5.87
2018-12-05T09:17:06.467Z,5.33
2018-12-05T09:19:35.680Z,5.63
2018-12-05T09:22:04.991Z,5.30
2018-12-05T09:24:34.238Z,5.20
2018-12-05T09:27:03.473Z,4.93
2018-12-05T09:29:32.729Z,5.10
2018-12-05T09:32:01.984Z,4.23
2018-12-05T09:34:31.229Z,4.47
2018-12-05T09:37:00.521Z,4.57
2018-12-05T09:39:29.735Z,3.33
2018-12-05T09:41:58.956Z,3.90
2018-12-05T09:44:28.136Z,6.03
2018-12-05T09:46:57.300Z,6.07
2018-12-05T09:49:26.573Z,5.30
2018-12-05T09:51:55.750Z,5.53
2018-12-05T09:54:24.967Z,5.87
2018-12-05T09:56:54.232Z,6.33
2018-12-05T09:59:23.408Z,4.77
2018-12-05T10:01:52.599Z,6.30
2018-12-05T10:04:21.881Z,6.33
2018-12-05T10:06:51.073Z,5.17
2018-12-05T10:09:20.254Z,6.00
2018-12-05T10:11:49.453Z,5.90
2018-12-05T10:14:18.644Z,4.77
2018-12-05T10:16:47.843Z,4.83
2018-12-05T10:19:17.074Z,6.37
2018-12-05T10:21:46.346Z,5.13
2018-12-05T10:24:15.550Z,6.17
2018-12-05T10:26:44.696Z,5.30
2018-12-05T10:29:13.869Z,5.67
2018-12-05T10:31:44.233Z,5.93
2018-12-05T10:34:13.726Z,5.10
2018-12-05T10:36:42.884Z,6.23
2018-12-05T10:39:12.049Z,5.37
2018-12-05T10:41:41.228Z,5.90
2018-12-05T10:44:10.498Z,4.80
2018-12-05T10:46:39.719Z,4.50
2018-12-05T10:49:09.008Z,5.13
2018-12-05T10:51:38.240Z,5.33
2018-12-05T10:54:07.458Z,4.97
2018-12-05T10:56:36.664Z,4.87
2018-12-05T10:59:05.847Z,6.63
2018-12-05T11:01:40.505Z,5.47
2018-12-05T11:04:14.957Z,6.43
2018-12-05T11:06:49.740Z,5.57
2018-12-05T11:09:24.331Z,5.50
2018-12-05T11:11:58.984Z,5.37
2018-12-05T11:14:33.461Z,4.70
2018-12-05T11:17:08.130Z,5.00
2018-12-05T11:19:42.815Z,6.00
2018-12-05T11:22:17.449Z,4.40
2018-12-05T11:24:47.472Z,4.27
2018-12-05T11:27:16.761Z,4.47
2018-12-05T11:29:45.988Z,3.50
2018-12-05T11:32:15.180Z,5.00
2018-12-05T11:34:44.428Z,5.27
2018-12-05T11:37:13.665Z,4.50
2018-12-05T11:39:42.846Z,5.00
2018-12-05T11:42:12.060Z,5.00
2018-12-05T11:44:41.273Z,5.27
2018-12-05T11:47:10.389Z,5.60
2018-12-05T11:49:39.589Z,3.83
2018-12-05T11:52:08.843Z,6.10
2018-12-05T11:54:38.161Z,5.23
2018-12-05T11:57:07.401Z,4.00
2018-12-05T11:59:36.609Z,4.20
2018-12-05T12:02:05.937Z,4.17
2018-12-05T12:04:35.072Z,5.27
2018-12-05T12:07:04.463Z,5.30
2018-12-05T12:09:33.810Z,6.13
2018-12-05T12:12:03.009Z,4.47
2018-12-05T12:14:32.226Z,5.50
2018-12-05T12:17:01.679Z,4.33
2018-12-05T12:19:30.969Z,4.60
2018-12-05T12:22:00.185Z,5.10
2018-12-05T12:24:34.833Z,6.40
2018-12-05T12:27:00.582Z,6.00
2018-12-05T12:29:29.790Z,6.20
2018-12-05T12:31:59.146Z,6.80
2018-12-05T12:34:28.288Z,7.87
2018-12-05T12:36:57.470Z,7.50
2018-12-05T12:39:26.663Z,8.87
2018-12-05T12:41:55.877Z,8.90
2018-12-05T12:44:25.085Z,7.70
2018-12-05T12:46:54.259Z,7.30
2018-12-05T12:49:23.543Z,7.20
2018-12-05T12:51:52.720Z,7.70
2018-12-05T12:54:22.969Z,8.43
2018-12-05T12:56:52.173Z,8.13
2018-12-05T12:59:21.348Z,7.57
2018-12-05T13:01:50.563Z,8.57
2018-12-05T13:04:19.785Z,7.23
2018-12-05T13:06:48.991Z,8.67
2018-12-05T13:09:18.382Z,7.63
2018-12-05T13:11:47.584Z,9.10
2018-12-05T13:14:16.853Z,8.60
2018-12-05T13:16:46.201Z,7.27
2018-12-05T13:19:15.338Z,7.60
2018-12-05T13:21:44.731Z,7.80
2018-12-05T13:24:14.242Z,8.20
2018-12-05T13:26:43.635Z,8.40
2018-12-05T13:29:12.870Z,7.00
2018-12-05T13:31:42.132Z,8.00
2018-12-05T13:34:11.397Z,7.10
2018-12-05T13:36:40.561Z,7.20
2018-12-05T13:39:10.041Z,8.00
2018-12-05T13:41:39.213Z,7.33
2018-12-05T13:44:08.605Z,8.50
2018-12-05T13:46:37.930Z,7.13
2018-12-05T13:49:07.232Z,8.00
2018-12-05T13:51:36.440Z,8.27
2018-12-05T13:54:05.774Z,8.30
2018-12-05T13:56:35.000Z,8.97
2018-12-05T13:59:04.294Z,9.30
2018-12-05T14:01:33.455Z,8.80
2018-12-05T14:04:02.595Z,10.43
2018-12-05T14:06:31.872Z,11.50
2018-12-05T14:09:01.102Z,11.90
2018-12-05T14:11:30.309Z,11.40
2018-12-05T14:13:59.495Z,11.37
2018-12-05T14:16:28.643Z,11.70
2018-12-05T14:18:57.775Z,13.10
2018-12-05T14:21:26.945Z,10.60
2018-12-05T14:23:56.207Z,12.50
2018-12-05T14:26:25.491Z,11.27
2018-12-05T14:28:54.691Z,11.17
2018-12-05T14:31:23.868Z,11.23
2018-12-05T14:33:53.052Z,11.20
2018-12-05T14:36:22.235Z,9.93
2018-12-05T14:38:51.483Z,12.10
2018-12-05T14:41:20.755Z,10.17
2018-12-05T14:43:50.019Z,10.63
2018-12-05T14:46:19.291Z,10.20
2018-12-05T14:48:48.543Z,10.10
2018-12-05T14:51:17.843Z,9.03
2018-12-05T14:53:47.108Z,10.30
2018-12-05T14:56:16.295Z,9.10
2018-12-05T14:58:45.395Z,9.90
2018-12-05T15:01:14.754Z,10.97
2018-12-05T15:03:44.190Z,10.93
2018-12-05T15:06:13.390Z,9.97
2018-12-05T15:08:43.201Z,10.43
2018-12-05T15:11:12.508Z,9.50
2018-12-05T15:13:41.727Z,10.70
2018-12-05T15:16:10.941Z,9.73
2018-12-05T15:18:40.275Z,10.70
2018-12-05T15:21:09.613Z,11.17
2018-12-05T15:23:38.748Z,10.17
2018-12-05T15:26:07.971Z,10.97
2018-12-05T15:28:37.210Z,11.23
2018-12-05T15:31:06.483Z,9.73
2018-12-05T15:33:35.761Z,9.17
2018-12-05T15:36:04.988Z,9.87
2018-12-05T15:38:34.186Z,11.60
2018-12-05T15:41:03.372Z,12.40
2018-12-05T15:43:32.638Z,9.23
2018-12-05T15:46:01.860Z,9.60
2018-12-05T15:48:31.085Z,8.60
2018-12-05T15:51:00.261Z,9.10
2018-12-05T15:53:29.461Z,8.77
2018-12-05T15:55:58.777Z,8.60
2018-12-05T15:58:28.011Z,9.27
2018-12-05T16:00:57.291Z,8.47
2018-12-05T16:03:26.516Z,8.37
2018-12-05T16:05:55.906Z,8.47
2018-12-05T16:08:25.242Z,8.20
2018-12-05T16:10:54.391Z,8.40
2018-12-05T16:13:23.575Z,8.53
2018-12-05T16:15:52.811Z,8.63
2018-12-05T16:18:22.037Z,8.87
2018-12-05T16:20:51.375Z,8.63
2018-12-05T16:23:20.701Z,8.97
2018-12-05T16:25:50.064Z,8.73
2018-12-05T16:28:19.257Z,9.50
2018-12-05T16:30:48.499Z,7.63
2018-12-05T16:33:17.703Z,9.00
2018-12-05T16:35:46.820Z,9.07
2018-12-05T16:38:16.258Z,7.83
2018-12-05T16:40:45.566Z,8.50
2018-12-05T16:43:14.768Z,7.53
2018-12-05T16:45:44.079Z,10.27
2018-12-05T16:48:13.231Z,9.83
2018-12-05T16:50:42.387Z,7.93
2018-12-05T16:53:11.669Z,7.77
2018-12-05T16:55:40.906Z,9.70
2018-12-05T16:58:10.150Z,8.13
2018-12-05T17:00:39.426Z,8.40
2018-12-05T17:03:08.815Z,8.30
2018-12-05T17:05:38.113Z,9.33
2018-12-05T17:08:07.452Z,7.63
2018-12-05T17:10:36.796Z,8.43
2018-12-05T17:13:06.089Z,7.87
2018-12-05T17:15:35.383Z,8.10
2018-12-05T17:18:04.794Z,7.13
2018-12-05T17:20:34.039Z,8.60
2018-12-05T17:23:03.276Z,7.17
2018-12-05T17:25:32.599Z,8.13
2018-12-05T17:28:01.777Z,6.67
2018-12-05T17:30:31.203Z,8.27
2018-12-05T17:33:00.390Z,7.67
2018-12-05T17:35:29.619Z,7.20
2018-12-05T17:37:58.985Z,8.00
2018-12-05T17:40:29.181Z,7.90
2018-12-05T17:42:58.581Z,8.27
2018-12-05T17:45:28.023Z,8.40
2018-12-05T17:47:57.296Z,7.77
2018-12-05T17:50:26.417Z,9.70
2018-12-05T17:52:55.630Z,10.43
2018-12-05T17:55:24.882Z,7.53
2018-12-05T17:57:54.140Z,8.27
2018-12-05T18:00:23.421Z,7.60
2018-12-05T18:02:52.587Z,6.60
2018-12-05T18:05:21.935Z,7.40
2018-12-05T18:07:51.114Z,6.50
2018-12-05T18:10:20.389Z,7.67
2018-12-05T18:12:49.596Z,6.50
2018-12-05T18:15:18.889Z,6.53
2018-12-05T18:17:48.047Z,7.03
2018-12-05T18:20:17.268Z,7.00
2018-12-05T18:22:46.491Z,7.23
2018-12-05T18:25:15.944Z,6.40
2018-12-05T18:27:45.132Z,6.90
2018-12-05T18:30:14.387Z,6.80
2018-12-05T18:32:43.585Z,6.50
2018-12-05T18:35:13.012Z,7.30
2018-12-05T18:37:42.076Z,6.30
2018-12-05T18:40:11.294Z,6.47
2018-12-05T18:42:40.612Z,6.47
2018-12-05T18:45:09.918Z,5.03
2018-12-05T18:47:39.149Z,5.37
2018-12-05T18:50:15.332Z,6.37
2018-12-05T18:52:44.543Z,5.80
2018-12-05T18:55:13.756Z,5.60
2018-12-05T18:57:43.099Z,6.47
2018-12-05T19:00:12.676Z,6.70
2018-12-05T19:02:41.924Z,5.43
2018-12-05T19:05:11.779Z,5.87
2018-12-05T19:07:40.917Z,5.67
2018-12-05T19:10:10.152Z,7.17
2018-12-05T19:12:39.353Z,5.57
2018-12-05T19:15:08.761Z,5.77
2018-12-05T19:17:38.626Z,5.70
2018-12-05T19:20:08.433Z,6.33
2018-12-05T19:22:37.837Z,4.97
2018-12-05T19:25:07.445Z,4.93
2018-12-05T19:27:36.705Z,6.10
2018-12-05T19:30:08.134Z,5.37
2018-12-05T19:32:37.532Z,5.77
2018-12-05T19:35:06.832Z,6.03
2018-12-05T19:37:36.100Z,5.57
2018-12-05T19:40:06.291Z,5.90
2018-12-05T19:42:35.582Z,6.03
2018-12-05T19:45:07.336Z,6.00
2018-12-05T19:47:36.622Z,5.50
2018-12-05T19:50:06.819Z,6.33
2018-12-05T19:52:36.087Z,4.67
2018-12-05T19:55:05.642Z,6.23
2018-12-05T19:57:34.884Z,6.47
2018-12-05T20:00:04.688Z,5.50
2018-12-05T20:02:33.937Z,6.87
2018-12-05T20:05:03.230Z,4.43
2018-12-05T20:07:32.984Z,5.50
2018-12-05T20:10:02.264Z,5.90
2018-12-05T20:12:31.455Z,6.70
2018-12-05T20:15:00.729Z,5.57
2018-12-05T20:17:31.610Z,5.00
2018-12-05T20:20:00.846Z,5.43
2018-12-05T20:22:30.048Z,5.50
2018-12-05T20:24:59.261Z,5.47
2018-12-05T20:27:28.510Z,4.90
2018-12-05T20:29:57.625Z,5.40
2018-12-05T20:32:26.815Z,5.27
2018-12-05T20:34:56.421Z,4.93
2018-12-05T20:37:26.000Z,5.27
2018-12-05T20:39:55.296Z,5.23
2018-12-05T20:42:24.455Z,5.27
2018-12-05T20:44:53.676Z,5.60
2018-12-05T20:47:23.111Z,6.30
2018-12-05T20:49:52.468Z,4.40
2018-12-05T20:52:21.684Z,5.30
2018-12-05T20:54:50.925Z,5.50
2018-12-05T20:57:20.106Z,5.23
2018-12-05T20:59:49.315Z,5.50
2018-12-05T21:02:18.587Z,5.80
2018-12-05T21:04:47.825Z,5.83
2018-12-05T21:07:17.078Z,5.40
2018-12-05T21:09:46.311Z,5.50
2018-12-05T21:12:15.597Z,6.43
2018-12-05T21:14:44.738Z,5.97
2018-12-05T21:17:13.927Z,6.00
2018-12-05T21:19:43.162Z,5.50
2018-12-05T21:22:12.486Z,5.30
2018-12-05T21:24:41.713Z,5.33
2018-12-05T21:27:10.984Z,6.70
2018-12-05T21:29:40.283Z,6.27
2018-12-05T21:32:09.495Z,7.03
2018-12-05T21:34:38.679Z,5.73
2018-12-05T21:37:07.826Z,6.37
2018-12-05T21:39:37.016Z,5.60
2018-12-05T21:42:06.621Z,6.07
2018-12-05T21:44:35.920Z,5.60
2018-12-05T21:47:05.284Z,4.93
2018-12-05T21:49:34.509Z,5.70
2018-12-05T21:52:03.752Z,5.70
2018-12-05T21:54:32.931Z,5.47
2018-12-05T21:57:02.059Z,5.37
2018-12-05T21:59:31.350Z,5.80
2018-12-05T22:02:03.578Z,6.00
2018-12-05T22:04:32.811Z,6.53
2018-12-05T22:07:02.025Z,5.90
2018-12-05T22:09:31.181Z,5.90
2018-12-05T22:12:00.366Z,5.20
2018-12-05T22:14:29.544Z,5.13
2018-12-05T22:16:58.696Z,4.67
2018-12-05T22:19:27.900Z,5.43
2018-12-05T22:21:57.247Z,4.63
2018-12-05T22:24:26.444Z,6.27
2018-12-05T22:27:02.347Z,5.50
2018-12-05T22:29:45.722Z,5.13
2018-12-05T22:32:14.965Z,5.97
2018-12-05T22:34:44.209Z,4.90
2018-12-05T22:37:13.368Z,5.00
2018-12-05T22:39:42.556Z,6.10
2018-12-05T22:42:11.690Z,5.20
2018-12-05T22:44:40.892Z,5.33
2018-12-05T22:47:10.139Z,5.13
2018-12-05T22:49:39.338Z,5.17
2018-12-05T22:52:08.565Z,5.83
2018-12-05T22:54:37.804Z,5.30
2018-12-05T22:57:15.091Z,5.70
2018-12-05T22:59:44.434Z,6.10
2018-12-05T23:02:13.679Z,5.17
2018-12-05T23:04:42.876Z,4.90
2018-12-05T23:07:12.060Z,6.00
2018-12-05T23:09:41.294Z,5.40
2018-12-05T23:12:16.760Z,5.17
2018-12-05T23:14:46.054Z,4.90
2018-12-05T23:17:15.314Z,5.40
2018-12-05T23:19:44.467Z,4.80
2018-12-05T23:22:13.713Z,4.93
2018-12-05T23:24:42.879Z,5.73
2018-12-05T23:27:12.259Z,4.90
2018-12-05T23:29:41.417Z,4.63
2018-12-05T23:32:10.497Z,5.00
2018-12-05T23:34:39.732Z,5.47
2018-12-05T23:37:08.996Z,4.90
2018-12-05T23:39:38.165Z,6.00
2018-12-05T23:42:07.428Z,5.00
2018-12-05T23:44:36.575Z,5.20
2018-12-05T23:47:06.649Z,5.73
2018-12-05T23:49:35.931Z,5.57
2018-12-05T23:52:05.150Z,6.17
2018-12-05T23:54:34.379Z,5.20
2018-12-05T23:57:03.567Z,4.50
2018-12-05T23:59:32.791Z,5.50
